Time;durP1;ratioP1;P1;durP2;ratioP2;P2;SDS_P1;SDS_P2;PMS_P1;PMS_P2;Temp;Humidity;BMP_temperature;BMP_pressure;BME280_temperature;BME280_humidity;BME280_pressure;Samples;Min_cycle;Max_cycle;Signal;HPM_P1;HPM_P2
2022/10/31 00:00:02;;;;;;;1.48;0.45;;;;;;;;;;4921583;28;20039;-66
2022/10/31 00:02:28;;;;;;;1.40;0.40;;;;;;;;;;4921038;28;20047;-67
2022/10/31 00:04:55;;;;;;;1.33;0.35;;;;;;;;;;4919886;28;20044;-66
2022/10/31 00:07:21;;;;;;;1.85;0.45;;;;;;;;;;4918950;28;20498;-65
2022/10/31 00:09:48;;;;;;;0.85;0.40;;;;;;;;;;4911215;28;20047;-65
2022/10/31 00:12:15;;;;;;;2.60;0.70;;;;;;;;;;4911870;28;20179;-67
2022/10/31 00:14:41;;;;;;;0.57;0.30;;;;;;;;;;4919290;28;20047;-67
2022/10/31 00:17:08;;;;;;;3.63;0.70;;;;;;;;;;4921373;28;20129;-67
2022/10/31 00:19:34;;;;;;;5.00;1.00;;;;;;;;;;4919855;28;20031;-65
2022/10/31 00:22:01;;;;;;;2.10;0.60;;;;;;;;;;4921144;28;20449;-66
2022/10/31 00:24:27;;;;;;;4.53;0.60;;;;;;;;;;4919025;28;20067;-65
2022/10/31 00:26:54;;;;;;;3.92;0.80;;;;;;;;;;4918146;28;20039;-66
2022/10/31 00:29:21;;;;;;;2.92;0.85;;;;;;;;;;4920194;28;20556;-66
2022/10/31 00:31:47;;;;;;;2.35;0.60;;;;;;;;;;4921583;28;20075;-65
2022/10/31 00:34:14;;;;;;;2.67;0.80;;;;;;;;;;4921546;28;20848;-64
2022/10/31 00:36:40;;;;;;;2.60;0.75;;;;;;;;;;4919607;28;20071;-66
2022/10/31 00:39:07;;;;;;;3.33;1.10;;;;;;;;;;4921036;28;20054;-67
2022/10/31 00:41:34;;;;;;;5.82;0.55;;;;;;;;;;4920490;28;20453;-65
2022/10/31 00:44:00;;;;;;;1.75;0.50;;;;;;;;;;4920229;28;20044;-64
2022/10/31 00:46:27;;;;;;;2.50;0.63;;;;;;;;;;4920920;28;20125;-65
2022/10/31 00:48:53;;;;;;;3.35;0.75;;;;;;;;;;4921327;28;20040;-64
2022/10/31 00:51:20;;;;;;;3.53;0.90;;;;;;;;;;4920169;28;20542;-65
2022/10/31 00:53:47;;;;;;;2.70;0.82;;;;;;;;;;4920463;28;20044;-65
2022/10/31 00:56:13;;;;;;;2.80;0.80;;;;;;;;;;4921553;28;20054;-64
2022/10/31 00:58:40;;;;;;;3.05;0.85;;;;;;;;;;4920007;28;20789;-66
2022/10/31 01:01:06;;;;;;;2.58;0.68;;;;;;;;;;4921729;28;20044;-65
2022/10/31 01:03:34;;;;;;;1.75;0.57;;;;;;;;;;4919566;28;20098;-66
2022/10/31 01:06:01;;;;;;;3.08;0.80;;;;;;;;;;4920092;28;20051;-65
2022/10/31 01:08:27;;;;;;;4.10;0.70;;;;;;;;;;4920388;28;20095;-63
2022/10/31 01:11:06;;;;;;;4.50;0.80;;;;;;;;;;4921025;28;20071;-65
2022/10/31 01:13:33;;;;;;;3.10;0.80;;;;;;;;;;4920438;28;20159;-63
2022/10/31 01:16:00;;;;;;;4.40;1.00;;;;;;;;;;4919469;28;20063;-65
2022/10/31 01:18:28;;;;;;;4.63;1.10;;;;;;;;;;4919720;28;20042;-66
2022/10/31 01:21:01;;;;;;;2.72;0.73;;;;;;;;;;4920581;28;20043;-64
2022/10/31 01:23:28;;;;;;;2.67;0.82;;;;;;;;;;4920019;28;20047;-64
2022/10/31 01:26:21;;;;;;;1.90;0.50;;;;;;;;;;4919494;28;20476;-66
2022/10/31 01:28:52;;;;;;;2.63;0.70;;;;;;;;;;4918513;28;20054;-63
2022/10/31 01:31:20;;;;;;;1.75;0.57;;;;;;;;;;4920511;28;20063;-67
2022/10/31 01:33:46;;;;;;;2.50;0.68;;;;;;;;;;4919114;28;20067;-66
2022/10/31 01:36:14;;;;;;;1.55;0.50;;;;;;;;;;4920252;28;20595;-64
2022/10/31 01:38:41;;;;;;;3.47;0.70;;;;;;;;;;4919242;28;20052;-65
2022/10/31 01:41:07;;;;;;;2.08;0.55;;;;;;;;;;4920422;28;20043;-65
2022/10/31 01:43:43;;;;;;;3.38;0.60;;;;;;;;;;4919219;28;20039;-65
2022/10/31 01:46:10;;;;;;;5.78;0.60;;;;;;;;;;4920218;28;20044;-66
2022/10/31 01:48:36;;;;;;;1.80;0.50;;;;;;;;;;4919779;28;20047;-66
2022/10/31 01:51:05;;;;;;;1.40;0.40;;;;;;;;;;4921480;28;21771;-65
2022/10/31 01:53:32;;;;;;;1.40;0.43;;;;;;;;;;4920791;28;20599;-66
2022/10/31 01:56:00;;;;;;;1.83;0.47;;;;;;;;;;4918796;29;20537;-66
2022/10/31 01:58:28;;;;;;;2.83;0.80;;;;;;;;;;4919204;28;20039;-65
2022/10/31 02:00:57;;;;;;;1.98;0.60;;;;;;;;;;4918867;29;20122;-65
2022/10/31 02:03:24;;;;;;;1.55;0.52;;;;;;;;;;4920179;28;20273;-66
2022/10/31 02:05:51;;;;;;;1.70;0.65;;;;;;;;;;4910231;28;20043;-66
2022/10/31 02:08:27;;;;;;;3.72;0.70;;;;;;;;;;4920308;28;20083;-67
2022/10/31 02:10:54;;;;;;;1.67;0.57;;;;;;;;;;4919455;28;20059;-66
2022/10/31 02:13:21;;;;;;;1.55;0.50;;;;;;;;;;4919921;28;20091;-66
2022/10/31 02:15:49;;;;;;;2.10;0.55;;;;;;;;;;4920490;29;20052;-65
2022/10/31 02:18:15;;;;;;;2.10;0.57;;;;;;;;;;4921470;28;20060;-67
2022/10/31 02:20:45;;;;;;;2.03;0.50;;;;;;;;;;4919761;28;20083;-66
2022/10/31 02:23:21;;;;;;;1.67;0.60;;;;;;;;;;4919682;28;20047;-64
2022/10/31 02:25:53;;;;;;;3.00;0.55;;;;;;;;;;4917997;28;20102;-66
2022/10/31 02:28:32;;;;;;;5.70;0.60;;;;;;;;;;4917411;28;20046;-66
2022/10/31 02:31:13;;;;;;;1.48;0.50;;;;;;;;;;4919954;28;20412;-65
2022/10/31 02:33:50;;;;;;;3.17;0.60;;;;;;;;;;4918154;28;20051;-68
2022/10/31 02:36:21;;;;;;;1.65;0.50;;;;;;;;;;4919318;28;20048;-65
2022/10/31 02:38:55;;;;;;;1.88;0.60;;;;;;;;;;4919077;28;20565;-66
2022/10/31 02:41:41;;;;;;;1.60;0.52;;;;;;;;;;4915094;28;20614;-67
2022/10/31 02:44:10;;;;;;;1.48;0.55;;;;;;;;;;4918190;28;20040;-65
2022/10/31 02:47:00;;;;;;;4.97;0.60;;;;;;;;;;4917928;28;20043;-67
2022/10/31 02:49:32;;;;;;;1.67;0.52;;;;;;;;;;4917662;28;20052;-67
2022/10/31 02:51:59;;;;;;;1.58;0.40;;;;;;;;;;4909608;29;20036;-66
2022/10/31 02:54:27;;;;;;;1.90;0.60;;;;;;;;;;4908904;28;20043;-66
2022/10/31 02:56:58;;;;;;;1.33;0.50;;;;;;;;;;4908744;29;20051;-67
2022/10/31 02:59:25;;;;;;;1.33;0.43;;;;;;;;;;4917124;28;20039;-67
2022/10/31 03:02:03;;;;;;;1.10;0.50;;;;;;;;;;4918458;28;20509;-66
2022/10/31 03:04:39;;;;;;;1.40;0.50;;;;;;;;;;4917054;28;20187;-66
2022/10/31 03:07:08;;;;;;;1.17;0.40;;;;;;;;;;4918195;28;20353;-66
2022/10/31 03:09:40;;;;;;;1.73;0.50;;;;;;;;;;4918167;28;20044;-67
2022/10/31 03:12:10;;;;;;;4.32;0.50;;;;;;;;;;4918935;28;20047;-67
2022/10/31 03:14:45;;;;;;;0.95;0.40;;;;;;;;;;4916780;28;20039;-66
2022/10/31 03:17:32;;;;;;;2.22;0.50;;;;;;;;;;4917766;28;20058;-67
2022/10/31 03:19:59;;;;;;;4.85;0.68;;;;;;;;;;4916624;28;20054;-65
2022/10/31 03:22:28;;;;;;;1.90;0.50;;;;;;;;;;4917702;28;20054;-65
2022/10/31 03:24:55;;;;;;;1.15;0.40;;;;;;;;;;4918404;28;20104;-66
2022/10/31 03:27:24;;;;;;;1.13;0.40;;;;;;;;;;4912226;28;20040;-65
2022/10/31 03:29:52;;;;;;;1.15;0.40;;;;;;;;;;4922366;28;20048;-65
2022/10/31 03:32:25;;;;;;;1.75;0.60;;;;;;;;;;4921317;28;20072;-66
2022/10/31 03:34:54;;;;;;;1.20;0.47;;;;;;;;;;4921235;28;20047;-66
2022/10/31 03:37:21;;;;;;;1.55;0.50;;;;;;;;;;4921498;28;20103;-66
2022/10/31 03:39:49;;;;;;;3.72;0.50;;;;;;;;;;4921836;28;20080;-66
2022/10/31 03:42:21;;;;;;;1.23;0.43;;;;;;;;;;4921543;28;20170;-65
2022/10/31 03:44:51;;;;;;;0.40;0.30;;;;;;;;;;4918914;28;20091;-65
2022/10/31 03:47:17;;;;;;;0.98;0.40;;;;;;;;;;4922058;28;20079;-66
2022/10/31 03:49:44;;;;;;;0.55;0.30;;;;;;;;;;4920013;28;20039;-66
2022/10/31 03:52:11;;;;;;;1.27;0.50;;;;;;;;;;4911021;28;20051;-66
2022/10/31 03:54:47;;;;;;;0.63;0.30;;;;;;;;;;4919743;28;20114;-69
2022/10/31 03:57:22;;;;;;;1.15;0.50;;;;;;;;;;4935363;28;20087;-65
2022/10/31 03:59:52;;;;;;;0.85;0.40;;;;;;;;;;4920412;28;20478;-65
2022/10/31 04:02:22;;;;;;;1.33;0.50;;;;;;;;;;4920784;28;20050;-66
2022/10/31 04:04:49;;;;;;;1.35;0.50;;;;;;;;;;4917939;29;21287;-64
2022/10/31 04:07:16;;;;;;;1.13;0.45;;;;;;;;;;4921189;28;20048;-67
2022/10/31 04:09:45;;;;;;;4.63;0.40;;;;;;;;;;4919622;28;20043;-66
2022/10/31 04:12:14;;;;;;;0.90;0.40;;;;;;;;;;4921093;28;20044;-67
2022/10/31 04:14:44;;;;;;;1.40;0.40;;;;;;;;;;4919114;28;20047;-65
2022/10/31 04:17:12;;;;;;;1.60;0.50;;;;;;;;;;4934461;28;21399;-65
2022/10/31 04:19:39;;;;;;;1.38;0.40;;;;;;;;;;4920684;28;20035;-67
2022/10/31 04:22:05;;;;;;;1.45;0.40;;;;;;;;;;4921414;28;20039;-65
2022/10/31 04:24:32;;;;;;;1.42;0.50;;;;;;;;;;4920495;28;20076;-66
2022/10/31 04:26:58;;;;;;;0.50;0.30;;;;;;;;;;4918819;28;20054;-65
2022/10/31 04:29:25;;;;;;;1.17;0.40;;;;;;;;;;4920411;28;20055;-65
2022/10/31 04:31:52;;;;;;;1.52;0.40;;;;;;;;;;4920528;28;20127;-65
2022/10/31 04:34:18;;;;;;;0.70;0.40;;;;;;;;;;4920226;28;20047;-65
2022/10/31 04:36:45;;;;;;;1.02;0.40;;;;;;;;;;4919487;28;20075;-65
2022/10/31 04:39:11;;;;;;;0.82;0.40;;;;;;;;;;4912393;29;20039;-64
2022/10/31 04:41:38;;;;;;;3.97;0.40;;;;;;;;;;4920643;28;20119;-65
2022/10/31 04:44:04;;;;;;;0.68;0.30;;;;;;;;;;4920539;28;20044;-66
2022/10/31 04:46:31;;;;;;;1.10;0.40;;;;;;;;;;4919733;28;20032;-65
2022/10/31 04:48:58;;;;;;;0.30;0.30;;;;;;;;;;4920882;28;20059;-65
2022/10/31 04:51:24;;;;;;;1.50;0.45;;;;;;;;;;4919515;28;20147;-66
2022/10/31 04:53:51;;;;;;;1.15;0.40;;;;;;;;;;4920107;28;20040;-65
2022/10/31 04:56:17;;;;;;;6.80;0.40;;;;;;;;;;4919131;29;20051;-65
2022/10/31 04:58:44;;;;;;;1.10;0.40;;;;;;;;;;4917349;29;20048;-66
2022/10/31 05:01:11;;;;;;;0.77;0.30;;;;;;;;;;4920540;28;20040;-65
2022/10/31 05:03:39;;;;;;;0.77;0.40;;;;;;;;;;4918826;28;20047;-65
2022/10/31 05:06:06;;;;;;;1.42;0.50;;;;;;;;;;4920839;28;20052;-65
2022/10/31 05:08:33;;;;;;;0.93;0.35;;;;;;;;;;4934667;28;20086;-65
2022/10/31 05:11:03;;;;;;;1.50;0.50;;;;;;;;;;4919748;28;20038;-66
2022/10/31 05:13:29;;;;;;;2.08;0.50;;;;;;;;;;4918536;28;20047;-66
2022/10/31 05:15:56;;;;;;;0.82;0.40;;;;;;;;;;4920577;28;20075;-66
2022/10/31 05:18:23;;;;;;;1.40;0.40;;;;;;;;;;4919647;28;20140;-65
2022/10/31 05:20:50;;;;;;;1.65;0.40;;;;;;;;;;4935104;28;20040;-65
2022/10/31 05:23:17;;;;;;;1.17;0.35;;;;;;;;;;4910826;28;20847;-68
2022/10/31 05:25:44;;;;;;;1.10;0.40;;;;;;;;;;4919816;28;20055;-65
2022/10/31 05:28:10;;;;;;;2.22;0.50;;;;;;;;;;4920217;28;20146;-67
2022/10/31 05:30:37;;;;;;;1.60;0.30;;;;;;;;;;4918916;28;20032;-67
2022/10/31 05:33:03;;;;;;;0.30;0.30;;;;;;;;;;4920290;28;20095;-66
2022/10/31 05:35:32;;;;;;;1.25;0.40;;;;;;;;;;4918989;28;20043;-66
2022/10/31 05:37:59;;;;;;;0.70;0.30;;;;;;;;;;4919503;28;21500;-66
2022/10/31 05:40:27;;;;;;;1.00;0.40;;;;;;;;;;4919897;28;20046;-65
2022/10/31 05:42:54;;;;;;;1.25;0.40;;;;;;;;;;4920700;28;20055;-65
2022/10/31 05:45:21;;;;;;;2.28;0.40;;;;;;;;;;4918265;28;20048;-67
2022/10/31 05:47:58;;;;;;;0.60;0.30;;;;;;;;;;4919577;28;20042;-65
2022/10/31 05:50:25;;;;;;;0.32;0.30;;;;;;;;;;4918565;28;20040;-65
2022/10/31 05:52:56;;;;;;;0.45;0.30;;;;;;;;;;4911106;28;20048;-65
2022/10/31 05:55:22;;;;;;;0.77;0.30;;;;;;;;;;4918447;28;20039;-65
2022/10/31 05:57:49;;;;;;;0.77;0.30;;;;;;;;;;4917893;28;20060;-66
2022/10/31 06:00:15;;;;;;;0.80;0.30;;;;;;;;;;4919320;28;20520;-65
2022/10/31 06:02:42;;;;;;;1.75;0.50;;;;;;;;;;4917906;28;20043;-66
2022/10/31 06:05:09;;;;;;;0.55;0.30;;;;;;;;;;4919518;28;21066;-66
2022/10/31 06:07:35;;;;;;;1.33;0.43;;;;;;;;;;4919334;28;20526;-66
2022/10/31 06:10:03;;;;;;;1.85;0.40;;;;;;;;;;4918730;28;20047;-64
2022/10/31 06:12:30;;;;;;;0.70;0.35;;;;;;;;;;4918655;28;20043;-67
2022/10/31 06:14:57;;;;;;;0.93;0.40;;;;;;;;;;4918812;28;20868;-65
2022/10/31 06:17:23;;;;;;;0.43;0.30;;;;;;;;;;4919270;28;20973;-64
2022/10/31 06:19:50;;;;;;;0.28;0.28;;;;;;;;;;4918780;28;20049;-65
2022/10/31 06:22:17;;;;;;;0.77;0.30;;;;;;;;;;4919130;28;20039;-65
2022/10/31 06:24:43;;;;;;;0.88;0.50;;;;;;;;;;4917277;28;20421;-65
2022/10/31 06:27:10;;;;;;;0.43;0.30;;;;;;;;;;4919548;28;20051;-65
2022/10/31 06:29:36;;;;;;;2.00;0.40;;;;;;;;;;4918435;28;20563;-65
2022/10/31 06:32:03;;;;;;;0.47;0.30;;;;;;;;;;4918639;28;20039;-65
2022/10/31 06:34:30;;;;;;;0.32;0.30;;;;;;;;;;4917633;28;20071;-65
2022/10/31 06:36:56;;;;;;;0.52;0.30;;;;;;;;;;4919943;28;20060;-65
2022/10/31 06:39:23;;;;;;;0.30;0.30;;;;;;;;;;4918034;28;20095;-65
2022/10/31 06:41:49;;;;;;;2.65;0.52;;;;;;;;;;4918877;28;20502;-65
2022/10/31 06:44:16;;;;;;;1.98;0.60;;;;;;;;;;4918123;28;20035;-64
2022/10/31 06:46:42;;;;;;;0.65;0.40;;;;;;;;;;4918495;28;20053;-65
2022/10/31 06:49:09;;;;;;;2.30;0.40;;;;;;;;;;4919109;28;20044;-65
2022/10/31 06:51:36;;;;;;;1.08;0.40;;;;;;;;;;4918678;28;20511;-65
2022/10/31 06:54:02;;;;;;;1.27;0.50;;;;;;;;;;4917513;28;20047;-64
2022/10/31 06:56:29;;;;;;;1.25;0.40;;;;;;;;;;4917972;28;20461;-66
2022/10/31 06:58:55;;;;;;;4.30;0.52;;;;;;;;;;4918798;28;20040;-64
2022/10/31 07:01:22;;;;;;;1.70;0.50;;;;;;;;;;4917425;28;20056;-64
2022/10/31 07:03:49;;;;;;;1.00;0.40;;;;;;;;;;4917254;28;20044;-65
2022/10/31 07:06:15;;;;;;;6.30;0.50;;;;;;;;;;4918165;28;20047;-64
2022/10/31 07:08:42;;;;;;;1.45;0.40;;;;;;;;;;4917612;28;20366;-64
2022/10/31 07:11:08;;;;;;;2.17;0.57;;;;;;;;;;4909331;28;20051;-65
2022/10/31 07:13:35;;;;;;;0.82;0.40;;;;;;;;;;4917292;28;20046;-65
2022/10/31 07:16:03;;;;;;;1.00;0.40;;;;;;;;;;4917248;28;20044;-66
2022/10/31 07:18:29;;;;;;;2.85;0.50;;;;;;;;;;4918427;28;20055;-65
2022/10/31 07:20:56;;;;;;;3.60;0.50;;;;;;;;;;4918322;28;20067;-64
2022/10/31 07:23:23;;;;;;;1.85;0.52;;;;;;;;;;4917721;28;20142;-63
2022/10/31 07:25:49;;;;;;;1.27;0.50;;;;;;;;;;4917707;28;20135;-64
2022/10/31 07:28:16;;;;;;;1.30;0.52;;;;;;;;;;4918111;28;20297;-65
2022/10/31 07:30:42;;;;;;;1.15;0.43;;;;;;;;;;4915738;28;20059;-64
2022/10/31 07:33:09;;;;;;;1.35;0.40;;;;;;;;;;4917963;28;20074;-65
2022/10/31 07:35:36;;;;;;;2.30;0.40;;;;;;;;;;4917021;28;20058;-64
2022/10/31 07:38:13;;;;;;;0.65;0.40;;;;;;;;;;4919273;28;20642;-65
2022/10/31 07:40:40;;;;;;;3.67;0.50;;;;;;;;;;4917248;28;20052;-65
2022/10/31 07:43:06;;;;;;;4.47;0.50;;;;;;;;;;4916247;29;20050;-65
2022/10/31 07:45:33;;;;;;;2.38;0.50;;;;;;;;;;4917338;28;20035;-64
2022/10/31 07:47:59;;;;;;;1.90;0.50;;;;;;;;;;4918900;28;20152;-66
2022/10/31 07:50:27;;;;;;;1.05;0.50;;;;;;;;;;4918317;28;20036;-65
2022/10/31 07:53:10;;;;;;;0.73;0.40;;;;;;;;;;4919203;28;20035;-64
2022/10/31 07:55:37;;;;;;;1.63;0.50;;;;;;;;;;4918309;28;20067;-64
2022/10/31 07:58:05;;;;;;;1.13;0.50;;;;;;;;;;4920451;28;20317;-64
2022/10/31 08:00:32;;;;;;;1.30;0.47;;;;;;;;;;4918186;28;20039;-64
2022/10/31 08:03:01;;;;;;;1.83;0.47;;;;;;;;;;4917936;28;20087;-67
2022/10/31 08:05:28;;;;;;;1.38;0.40;;;;;;;;;;4916637;28;20111;-65
2022/10/31 08:07:55;;;;;;;1.33;0.50;;;;;;;;;;4918655;28;20036;-64
2022/10/31 08:10:21;;;;;;;1.48;0.52;;;;;;;;;;4906957;28;20040;-65
2022/10/31 08:12:55;;;;;;;0.85;0.30;;;;;;;;;;4921484;28;20361;-65
2022/10/31 08:15:21;;;;;;;;;;;;;;;;;;4920580;28;20032;-65
2022/10/31 08:17:48;;;;;;;2.08;0.60;;;;;;;;;;4921525;28;19927;-66
2022/10/31 08:20:14;;;;;;;1.83;0.60;;;;;;;;;;4921451;28;20054;-66
2022/10/31 08:22:41;;;;;;;1.35;0.43;;;;;;;;;;4920493;28;20062;-65
2022/10/31 08:25:08;;;;;;;1.23;0.40;;;;;;;;;;4921162;28;20032;-64
2022/10/31 08:27:34;;;;;;;1.88;0.60;;;;;;;;;;4919001;28;20505;-63
2022/10/31 08:30:01;;;;;;;2.10;0.60;;;;;;;;;;4921304;28;20052;-64
2022/10/31 08:32:27;;;;;;;1.20;0.40;;;;;;;;;;4920423;28;20043;-63
2022/10/31 08:34:54;;;;;;;5.35;0.60;;;;;;;;;;4921156;28;20118;-64
2022/10/31 08:37:20;;;;;;;1.50;0.50;;;;;;;;;;4920663;28;20056;-66
2022/10/31 08:39:47;;;;;;;2.80;0.40;;;;;;;;;;4921268;28;20052;-65
2022/10/31 08:42:14;;;;;;;1.38;0.45;;;;;;;;;;4919872;28;20039;-66
2022/10/31 08:44:40;;;;;;;1.40;0.50;;;;;;;;;;4918810;28;20532;-67
2022/10/31 08:47:07;;;;;;;2.88;0.63;;;;;;;;;;4921438;28;20270;-64
2022/10/31 08:49:34;;;;;;;1.48;0.50;;;;;;;;;;4920855;28;20032;-65
2022/10/31 08:52:00;;;;;;;1.35;0.50;;;;;;;;;;4920087;28;20056;-66
2022/10/31 08:54:27;;;;;;;1.25;0.40;;;;;;;;;;4920498;28;20662;-64
2022/10/31 08:56:57;;;;;;;1.33;0.40;;;;;;;;;;4910464;28;20071;-65
2022/10/31 08:59:23;;;;;;;1.73;0.40;;;;;;;;;;4921402;28;20032;-65
2022/10/31 09:01:50;;;;;;;3.60;0.50;;;;;;;;;;4920204;28;20162;-65
2022/10/31 09:04:17;;;;;;;1.42;0.50;;;;;;;;;;4919250;28;20038;-64
2022/10/31 09:06:43;;;;;;;1.92;0.52;;;;;;;;;;4919048;28;20048;-64
2022/10/31 09:09:10;;;;;;;1.35;0.50;;;;;;;;;;4920634;28;20754;-65
2022/10/31 09:11:36;;;;;;;1.92;0.50;;;;;;;;;;4917821;28;20480;-65
2022/10/31 09:14:03;;;;;;;2.40;0.60;;;;;;;;;;4920307;28;20036;-66
2022/10/31 09:16:30;;;;;;;2.05;0.50;;;;;;;;;;4920086;28;20063;-66
2022/10/31 09:18:56;;;;;;;2.00;0.60;;;;;;;;;;4920018;29;20122;-65
2022/10/31 09:21:23;;;;;;;1.98;0.40;;;;;;;;;;4919342;28;20496;-66
2022/10/31 09:23:49;;;;;;;1.77;0.60;;;;;;;;;;4917300;29;20111;-67
2022/10/31 09:26:16;;;;;;;1.67;0.50;;;;;;;;;;4919668;28;20043;-66
2022/10/31 09:28:44;;;;;;;1.63;0.50;;;;;;;;;;4919326;28;20063;-65
2022/10/31 09:31:11;;;;;;;1.35;0.40;;;;;;;;;;4920321;28;20055;-65
2022/10/31 09:33:37;;;;;;;1.60;0.50;;;;;;;;;;4918530;28;20059;-65
2022/10/31 09:36:04;;;;;;;1.50;0.40;;;;;;;;;;4920098;28;20118;-65
2022/10/31 09:38:31;;;;;;;1.83;0.50;;;;;;;;;;4919530;28;20504;-65
2022/10/31 09:40:57;;;;;;;4.30;0.60;;;;;;;;;;4920083;28;20040;-65
2022/10/31 09:43:30;;;;;;;1.38;0.50;;;;;;;;;;4918960;28;20071;-67
2022/10/31 09:46:01;;;;;;;1.85;0.40;;;;;;;;;;4917609;28;20401;-66
2022/10/31 09:48:32;;;;;;;1.55;0.45;;;;;;;;;;4919020;28;20040;-66
2022/10/31 09:51:07;;;;;;;3.40;0.50;;;;;;;;;;4919953;28;20922;-66
2022/10/31 09:53:34;;;;;;;1.38;0.50;;;;;;;;;;4918690;28;20051;-66
2022/10/31 09:56:01;;;;;;;1.98;0.50;;;;;;;;;;4919861;28;20071;-66
2022/10/31 09:58:29;;;;;;;2.40;0.60;;;;;;;;;;4917516;28;20056;-66
2022/10/31 10:00:57;;;;;;;1.80;0.50;;;;;;;;;;4910938;28;20050;-66
2022/10/31 10:03:33;;;;;;;5.10;0.60;;;;;;;;;;4932920;28;20051;-66
2022/10/31 10:06:04;;;;;;;1.73;0.50;;;;;;;;;;4918905;28;20517;-66
2022/10/31 10:08:32;;;;;;;1.55;0.50;;;;;;;;;;4918763;28;20044;-65
2022/10/31 10:11:02;;;;;;;1.60;0.50;;;;;;;;;;4919314;28;20038;-64
2022/10/31 10:13:28;;;;;;;1.58;0.50;;;;;;;;;;4918215;28;20051;-64
2022/10/31 10:16:01;;;;;;;2.03;0.63;;;;;;;;;;4919536;28;20165;-65
2022/10/31 10:18:33;;;;;;;2.77;0.50;;;;;;;;;;4918026;28;20404;-65
2022/10/31 10:21:10;;;;;;;1.25;0.50;;;;;;;;;;4917819;28;20089;-66
2022/10/31 10:23:37;;;;;;;3.60;0.50;;;;;;;;;;4916809;28;20322;-65
2022/10/31 10:26:20;;;;;;;1.52;0.50;;;;;;;;;;4919293;28;20071;-65
2022/10/31 10:28:50;;;;;;;1.58;0.50;;;;;;;;;;4918568;28;20058;-65
2022/10/31 10:31:25;;;;;;;1.05;0.47;;;;;;;;;;4909743;28;20091;-65
2022/10/31 10:33:52;;;;;;;1.25;0.40;;;;;;;;;;4917731;28;20704;-65
2022/10/31 10:36:27;;;;;;;0.90;0.50;;;;;;;;;;4918971;28;20032;-65
2022/10/31 10:39:01;;;;;;;1.73;0.50;;;;;;;;;;4916661;29;20047;-65
2022/10/31 10:41:30;;;;;;;1.77;0.50;;;;;;;;;;4918962;28;20039;-64
2022/10/31 10:43:57;;;;;;;0.88;0.40;;;;;;;;;;4919129;28;20539;-64
2022/10/31 10:50:04;;;;;;;1.52;0.55;;;;;;;;;;4917489;28;20094;-64
2022/10/31 10:52:47;;;;;;;1.67;0.50;;;;;;;;;;4886982;29;20505;-65
2022/10/31 10:55:14;;;;;;;1.85;0.50;;;;;;;;;;4913674;28;20039;-65
2022/10/31 10:57:58;;;;;;;1.63;0.57;;;;;;;;;;4919590;28;20056;-64
2022/10/31 11:00:27;;;;;;;0.63;0.40;;;;;;;;;;4917983;28;20409;-64
2022/10/31 11:02:54;;;;;;;1.33;0.50;;;;;;;;;;4918559;28;20043;-66
2022/10/31 11:05:26;;;;;;;4.07;0.60;;;;;;;;;;4919460;28;20577;-64
2022/10/31 11:07:52;;;;;;;3.55;0.60;;;;;;;;;;4917811;28;20525;-64
2022/10/31 11:10:19;;;;;;;1.80;0.52;;;;;;;;;;4918356;28;20044;-64
2022/10/31 11:12:58;;;;;;;2.28;0.57;;;;;;;;;;4918952;28;20478;-64
2022/10/31 11:15:27;;;;;;;1.60;0.40;;;;;;;;;;4918439;28;20135;-64
2022/10/31 11:17:55;;;;;;;1.85;0.60;;;;;;;;;;4917363;28;20052;-64
2022/10/31 11:20:35;;;;;;;1.52;0.50;;;;;;;;;;4918323;28;20309;-64
2022/10/31 11:23:04;;;;;;;1.48;0.50;;;;;;;;;;4918941;28;20559;-63
2022/10/31 11:25:30;;;;;;;2.22;0.50;;;;;;;;;;4918335;28;20032;-64
2022/10/31 11:28:04;;;;;;;2.10;0.60;;;;;;;;;;4908473;28;20031;-65
2022/10/31 11:30:32;;;;;;;3.13;0.50;;;;;;;;;;4918337;28;20044;-64
2022/10/31 11:32:58;;;;;;;1.42;0.50;;;;;;;;;;4909700;28;20036;-65
2022/10/31 11:35:26;;;;;;;1.52;0.50;;;;;;;;;;4918769;28;20048;-65
2022/10/31 11:37:54;;;;;;;1.60;0.50;;;;;;;;;;4918209;28;20052;-66
2022/10/31 11:40:27;;;;;;;1.83;0.50;;;;;;;;;;4917598;28;20448;-66
2022/10/31 11:42:56;;;;;;;1.98;0.50;;;;;;;;;;4918186;28;20453;-66
2022/10/31 11:45:23;;;;;;;1.77;0.52;;;;;;;;;;4917464;28;20054;-65
2022/10/31 11:47:51;;;;;;;1.98;0.60;;;;;;;;;;4920994;28;20120;-64
2022/10/31 11:50:22;;;;;;;2.65;0.80;;;;;;;;;;4922636;28;20130;-64
2022/10/31 11:52:49;;;;;;;3.92;0.70;;;;;;;;;;4921125;28;20040;-64
2022/10/31 11:55:30;;;;;;;2.47;0.70;;;;;;;;;;4923003;28;20036;-64
2022/10/31 11:57:57;;;;;;;1.92;0.60;;;;;;;;;;4920953;28;20143;-64
2022/10/31 12:00:40;;;;;;;1.50;0.40;;;;;;;;;;4921646;28;20051;-64
2022/10/31 12:03:07;;;;;;;1.60;0.50;;;;;;;;;;4922462;28;20434;-64
2022/10/31 12:05:33;;;;;;;1.05;0.43;;;;;;;;;;4920655;28;20426;-64
2022/10/31 12:08:00;;;;;;;3.17;0.60;;;;;;;;;;4921132;28;20377;-65
2022/10/31 12:10:29;;;;;;;1.52;0.55;;;;;;;;;;4920890;28;20823;-65
2022/10/31 12:12:59;;;;;;;1.60;0.57;;;;;;;;;;4923897;28;20068;-65
2022/10/31 12:15:31;;;;;;;1.05;0.43;;;;;;;;;;4920199;28;20048;-65
2022/10/31 12:17:57;;;;;;;1.40;0.47;;;;;;;;;;4921119;28;20044;-65
2022/10/31 12:20:24;;;;;;;1.85;0.60;;;;;;;;;;4920999;28;20054;-65
2022/10/31 12:23:04;;;;;;;1.63;0.50;;;;;;;;;;4921354;28;20040;-66
2022/10/31 12:25:35;;;;;;;1.13;0.40;;;;;;;;;;4934792;28;20114;-65
2022/10/31 12:28:01;;;;;;;1.95;0.55;;;;;;;;;;4920392;28;20043;-65
2022/10/31 12:30:31;;;;;;;1.70;0.57;;;;;;;;;;4920348;28;20031;-66
2022/10/31 12:32:58;;;;;;;3.75;1.00;;;;;;;;;;4921076;28;20048;-65
2022/10/31 12:35:30;;;;;;;3.53;0.80;;;;;;;;;;4920868;28;20031;-64
2022/10/31 12:38:23;;;;;;;2.30;0.70;;;;;;;;;;4920633;28;20054;-65
2022/10/31 12:40:50;;;;;;;1.92;0.50;;;;;;;;;;4917890;28;20576;-65
2022/10/31 12:43:19;;;;;;;2.15;0.50;;;;;;;;;;4920053;28;20400;-65
2022/10/31 12:45:46;;;;;;;1.98;0.65;;;;;;;;;;4919865;28;20568;-64
2022/10/31 12:48:26;;;;;;;1.73;0.60;;;;;;;;;;4917916;28;20508;-64
2022/10/31 12:50:55;;;;;;;5.38;0.60;;;;;;;;;;4919087;28;20048;-63
2022/10/31 12:53:25;;;;;;;2.53;0.65;;;;;;;;;;4919979;28;20099;-65
2022/10/31 12:56:06;;;;;;;2.60;0.65;;;;;;;;;;4920908;28;20067;-63
2022/10/31 12:58:36;;;;;;;2.00;0.50;;;;;;;;;;4917526;28;20082;-63
2022/10/31 13:01:24;;;;;;;3.63;0.77;;;;;;;;;;4918685;28;20050;-64
2022/10/31 13:04:16;;;;;;;1.75;0.60;;;;;;;;;;4920059;28;20521;-64
2022/10/31 13:06:49;;;;;;;3.28;0.93;;;;;;;;;;4919598;28;20168;-64
2022/10/31 13:09:21;;;;;;;2.35;0.70;;;;;;;;;;4919549;28;21544;-63
2022/10/31 13:11:56;;;;;;;3.22;0.68;;;;;;;;;;4919968;28;20036;-64
2022/10/31 13:14:27;;;;;;;2.75;0.73;;;;;;;;;;4917356;28;20047;-65
2022/10/31 13:16:56;;;;;;;1.52;0.50;;;;;;;;;;4920739;28;20328;-64
2022/10/31 13:19:32;;;;;;;2.30;0.50;;;;;;;;;;4919095;28;20492;-65
2022/10/31 13:22:06;;;;;;;2.78;0.70;;;;;;;;;;4920874;28;20117;-64
2022/10/31 13:24:32;;;;;;;;;;;;;;;;;;4919933;28;20066;-64
2022/10/31 13:27:00;;;;;;;2.72;0.70;;;;;;;;;;4920751;28;19923;-64
2022/10/31 13:29:51;;;;;;;2.97;0.70;;;;;;;;;;4918603;28;20082;-64
2022/10/31 13:32:18;;;;;;;1.85;0.65;;;;;;;;;;4919826;28;20082;-64
2022/10/31 13:34:47;;;;;;;1.63;0.50;;;;;;;;;;4919509;28;20090;-64
2022/10/31 13:37:29;;;;;;;2.03;0.68;;;;;;;;;;4920452;28;20619;-64
2022/10/31 13:40:22;;;;;;;3.22;0.47;;;;;;;;;;4920092;28;20508;-65
2022/10/31 13:42:54;;;;;;;2.20;0.60;;;;;;;;;;4904103;28;20044;-64
2022/10/31 13:45:23;;;;;;;2.15;0.60;;;;;;;;;;4919400;28;20067;-64
2022/10/31 13:48:02;;;;;;;2.45;0.63;;;;;;;;;;4919615;28;20485;-64
2022/10/31 13:50:30;;;;;;;2.97;0.68;;;;;;;;;;4919972;28;20535;-65
2022/10/31 13:53:13;;;;;;;2.03;0.70;;;;;;;;;;4920509;28;20066;-65
2022/10/31 13:55:42;;;;;;;2.17;0.73;;;;;;;;;;4917879;28;20051;-65
2022/10/31 13:58:23;;;;;;;4.68;0.70;;;;;;;;;;4919062;28;20062;-65
2022/10/31 14:01:08;;;;;;;5.38;0.82;;;;;;;;;;4919570;28;20424;-64
2022/10/31 14:03:36;;;;;;;3.38;0.80;;;;;;;;;;4919073;28;20054;-63
2022/10/31 14:06:03;;;;;;;5.10;0.90;;;;;;;;;;4916668;28;20067;-63
2022/10/31 14:08:32;;;;;;;2.65;0.80;;;;;;;;;;4917373;28;20795;-64
2022/10/31 14:10:59;;;;;;;6.18;0.88;;;;;;;;;;4919228;28;20044;-64
2022/10/31 14:13:29;;;;;;;7.30;1.23;;;;;;;;;;4918909;28;20048;-65
2022/10/31 14:15:58;;;;;;;1.90;0.60;;;;;;;;;;4920008;28;20094;-65
2022/10/31 14:18:26;;;;;;;3.85;0.80;;;;;;;;;;4918016;28;20059;-64
2022/10/31 14:20:52;;;;;;;6.47;1.42;;;;;;;;;;4919455;28;20560;-65
2022/10/31 14:23:34;;;;;;;4.85;1.50;;;;;;;;;;4918970;28;20047;-64
2022/10/31 14:26:19;;;;;;;5.05;1.95;;;;;;;;;;4919817;28;20606;-65
2022/10/31 14:28:46;;;;;;;2.20;0.73;;;;;;;;;;4919294;28;20040;-67
2022/10/31 14:31:35;;;;;;;2.95;0.80;;;;;;;;;;4919968;28;20052;-64
2022/10/31 14:34:03;;;;;;;2.00;0.70;;;;;;;;;;4919939;28;20058;-64
2022/10/31 14:36:42;;;;;;;4.90;0.80;;;;;;;;;;4918390;28;20044;-63
2022/10/31 14:39:44;;;;;;;2.45;0.77;;;;;;;;;;4918924;28;20048;-64
2022/10/31 14:42:20;;;;;;;6.55;0.80;;;;;;;;;;4916988;28;20103;-65
2022/10/31 14:44:47;;;;;;;2.55;0.70;;;;;;;;;;4920433;28;20048;-65
2022/10/31 14:47:37;;;;;;;2.78;0.80;;;;;;;;;;4922061;28;20501;-64
2022/10/31 14:50:06;;;;;;;2.50;0.70;;;;;;;;;;4919985;28;20493;-65
2022/10/31 14:52:35;;;;;;;4.32;0.88;;;;;;;;;;4920542;28;20039;-66
2022/10/31 14:55:02;;;;;;;4.70;0.80;;;;;;;;;;4921404;28;20043;-64
2022/10/31 14:57:35;;;;;;;2.30;0.80;;;;;;;;;;4919499;28;20040;-65
2022/10/31 15:00:05;;;;;;;2.50;0.70;;;;;;;;;;4919832;28;20028;-66